Time;durP1;ratioP1;P1;durP2;ratioP2;P2;SDS_P1;SDS_P2;PMS_P1;PMS_P2;Temp;Humidity;BMP_temperature;BMP_pressure;BME280_temperature;BME280_humidity;BME280_pressure;Samples;Min_cycle;Max_cycle;Signal;HPM_P1;HPM_P2
2023/02/02 00:00:46;;;;;;;4.33;1.83;;;16.40;61.70;;;;;;5113882;27;20184;-47
2023/02/02 00:03:17;;;;;;;5.43;2.13;;;16.40;61.80;;;;;;5108475;28;20689;-47
2023/02/02 00:05:51;;;;;;;5.00;1.83;;;16.40;61.80;;;;;;5097819;27;20194;-47
2023/02/02 00:08:21;;;;;;;4.17;1.93;;;16.40;61.80;;;;;;5117452;27;20403;-47
2023/02/02 00:10:56;;;;;;;5.57;2.03;;;16.40;61.50;;;;;;5091110;28;20195;-47
2023/02/02 00:13:25;;;;;;;4.73;2.10;;;16.40;61.80;;;;;;5109625;27;20203;-47
2023/02/02 00:15:56;;;;;;;6.90;1.90;;;16.40;61.90;;;;;;5114796;27;20614;-47
2023/02/02 00:18:27;;;;;;;7.33;1.57;;;16.40;61.80;;;;;;5116498;27;20727;-47
2023/02/02 00:20:56;;;;;;;5.47;2.27;;;16.40;61.80;;;;;;5121290;27;20253;-47
2023/02/02 00:23:25;;;;;;;4.63;1.93;;;16.30;61.80;;;;;;5115539;27;20207;-47
2023/02/02 00:25:54;;;;;;;3.77;1.67;;;16.30;61.90;;;;;;5110155;27;20513;-47
2023/02/02 00:28:24;;;;;;;4.47;2.03;;;16.40;61.90;;;;;;5110061;27;20200;-47
2023/02/02 00:30:54;;;;;;;5.03;2.13;;;16.30;62.00;;;;;;5108652;27;20597;-47
2023/02/02 00:33:25;;;;;;;3.73;1.40;;;16.30;62.10;;;;;;5112771;27;20185;-47
2023/02/02 00:35:56;;;;;;;5.10;2.13;;;16.30;62.20;;;;;;5093065;28;20247;-47
2023/02/02 00:38:29;;;;;;;5.97;1.90;;;16.30;62.00;;;;;;5100153;27;20199;-47
2023/02/02 00:41:01;;;;;;;5.20;1.70;;;16.30;61.90;;;;;;5106846;27;20230;-47
2023/02/02 00:43:33;;;;;;;4.10;1.53;;;16.30;61.90;;;;;;5114837;27;20598;-47
2023/02/02 00:46:02;;;;;;;3.33;1.60;;;16.30;62.10;;;;;;5109843;27;20627;-47
2023/02/02 00:48:33;;;;;;;5.63;1.93;;;16.30;61.70;;;;;;5106801;28;20185;-47
2023/02/02 00:51:01;;;;;;;4.67;1.60;;;16.30;62.10;;;;;;5105866;27;20239;-47
2023/02/02 00:53:32;;;;;;;5.47;1.90;;;16.30;62.10;;;;;;5113115;27;20200;-47
2023/02/02 00:56:03;;;;;;;3.37;1.53;;;16.30;61.90;;;;;;5110143;27;20227;-47
2023/02/02 00:58:35;;;;;;;4.37;1.87;;;16.30;61.90;;;;;;5096272;27;20199;-47
2023/02/02 01:01:17;;;;;;;4.27;1.70;;;16.30;62.00;;;;;;5112963;27;20275;-47
2023/02/02 01:03:49;;;;;;;5.80;2.23;;;16.30;61.90;;;;;;5114702;27;20234;-47
2023/02/02 01:06:19;;;;;;;5.33;1.77;;;16.30;62.00;;;;;;5091578;28;20216;-47
2023/02/02 01:08:53;;;;;;;7.20;2.20;;;16.30;61.90;;;;;;5111288;27;20627;-47
2023/02/02 01:11:25;;;;;;;6.10;2.00;;;16.30;61.80;;;;;;5115028;27;20192;-47
2023/02/02 01:14:00;;;;;;;4.47;2.03;;;16.20;61.60;;;;;;5086838;28;20196;-47
2023/02/02 01:16:31;;;;;;;5.87;1.83;;;16.20;61.90;;;;;;5104306;27;20212;-47
2023/02/02 01:18:59;;;;;;;4.53;1.77;;;16.30;62.10;;;;;;5115312;27;20558;-47
2023/02/02 01:21:34;;;;;;;4.40;1.67;;;16.20;62.00;;;;;;5100854;28;20215;-47
2023/02/02 01:24:05;;;;;;;5.57;2.07;;;16.20;62.00;;;;;;5105190;27;20226;-47
2023/02/02 01:26:36;;;;;;;5.90;1.60;;;16.20;62.10;;;;;;5112845;27;20607;-47
2023/02/02 01:29:06;;;;;;;7.33;2.30;;;16.20;62.20;;;;;;5111872;27;20207;-47
2023/02/02 01:31:36;;;;;;;3.17;1.37;;;16.20;62.20;;;;;;5110836;27;20238;-47
2023/02/02 01:34:08;;;;;;;5.30;1.70;;;16.20;62.20;;;;;;5113585;27;20196;-47
2023/02/02 01:36:41;;;;;;;5.60;1.83;;;16.20;62.20;;;;;;5111557;27;20238;-47
2023/02/02 01:39:10;;;;;;;4.77;1.80;;;16.20;62.10;;;;;;5109725;28;20223;-47
2023/02/02 01:41:41;;;;;;;2.90;1.30;;;16.20;62.10;;;;;;5114336;27;20219;-47
2023/02/02 01:44:49;;;;;;;5.10;1.83;;;16.20;61.80;;;;;;5091229;28;20565;-47
2023/02/02 01:47:38;;;;;;;6.27;2.33;;;16.20;61.90;;;;;;5110534;28;20205;-47
2023/02/02 01:50:22;;;;;;;4.37;1.70;;;16.20;62.30;;;;;;5077827;28;20207;-47
2023/02/02 01:52:57;;;;;;;4.77;1.70;;;16.20;62.10;;;;;;5075340;28;20212;-47
2023/02/02 01:55:28;;;;;;;6.47;2.00;;;16.20;62.10;;;;;;5098199;28;20300;-47
2023/02/02 01:58:41;;;;;;;4.27;1.60;;;16.20;62.10;;;;;;5092191;28;20184;-47
2023/02/02 02:01:13;;;;;;;4.43;1.63;;;16.20;62.10;;;;;;5118493;28;20512;-47
2023/02/02 02:03:48;;;;;;;5.43;1.87;;;16.10;62.20;;;;;;5093359;28;20278;-47
2023/02/02 02:06:20;;;;;;;4.90;2.20;;;16.20;62.20;;;;;;5112143;28;20666;-47
2023/02/02 02:08:59;;;;;;;4.60;1.73;;;16.20;61.90;;;;;;5112913;28;20288;-47
2023/02/02 02:11:29;;;;;;;5.53;1.73;;;16.20;62.10;;;;;;5096534;28;20261;-47
2023/02/02 02:17:19;;;;;;;5.10;2.07;;;16.20;62.00;;;;;;5094606;28;20205;-47
2023/02/02 02:26:59;;;;;;;5.07;1.70;;;16.10;61.90;;;;;;5110871;27;20577;-47
2023/02/02 02:29:53;;;;;;;5.20;2.03;;;16.10;62.00;;;;;;5111894;28;20216;-47
2023/02/02 02:32:31;;;;;;;4.70;1.90;;;16.10;62.20;;;;;;5114872;27;20196;-47
2023/02/02 02:35:41;;;;;;;4.80;2.10;;;16.10;62.10;;;;;;5122964;27;20632;-47
2023/02/02 02:38:34;;;;;;;5.20;2.23;;;16.10;62.10;;;;;;4995918;28;20211;-47
2023/02/02 02:41:22;;;;;;;4.20;2.00;;;16.10;62.10;;;;;;5114060;27;20218;-47
2023/02/02 02:44:09;;;;;;;4.63;1.50;;;16.10;62.00;;;;;;5090412;27;20208;-47
2023/02/02 02:46:40;;;;;;;6.60;2.20;;;16.10;62.10;;;;;;5108706;27;20184;-47
2023/02/02 02:49:12;;;;;;;4.03;1.97;;;16.10;62.20;;;;;;5103457;27;20191;-47
2023/02/02 02:51:53;;;;;;;5.43;1.97;;;16.10;62.20;;;;;;5105460;28;20200;-47
2023/02/02 02:54:26;;;;;;;4.37;1.70;;;16.10;62.20;;;;;;5095220;28;20234;-47
2023/02/02 02:57:35;;;;;;;3.90;1.90;;;16.10;62.10;;;;;;5099383;27;20192;-47
2023/02/02 03:00:47;;;;;;;4.53;1.67;;;16.10;62.90;;;;;;5106025;27;20286;-47
2023/02/02 03:03:25;;;;;;;4.63;1.97;;;16.10;62.30;;;;;;5110524;27;20940;-47
2023/02/02 03:06:17;;;;;;;5.30;1.90;;;16.10;62.20;;;;;;5114890;27;20188;-47
2023/02/02 03:09:09;;;;;;;5.40;2.33;;;16.10;62.10;;;;;;5117501;27;20718;-47
2023/02/02 03:11:38;;;;;;;5.97;1.80;;;16.10;62.90;;;;;;5094009;28;20281;-47
2023/02/02 03:14:08;;;;;;;5.33;2.40;;;16.10;62.30;;;;;;5120189;27;20215;-47
2023/02/02 03:16:38;;;;;;;6.47;2.17;;;16.10;62.30;;;;;;5105089;27;20574;-47
2023/02/02 03:19:09;;;;;;;5.73;2.03;;;16.10;62.30;;;;;;5085395;27;20271;-47
2023/02/02 03:21:39;;;;;;;5.33;1.50;;;16.10;62.30;;;;;;5114788;27;20197;-47
2023/02/02 03:24:10;;;;;;;8.13;2.10;;;16.10;62.30;;;;;;5110485;27;20224;-47
2023/02/02 03:26:39;;;;;;;4.87;1.93;;;16.10;62.30;;;;;;5109060;28;20279;-47
2023/02/02 03:29:15;;;;;;;6.50;1.80;;;16.10;62.20;;;;;;5117584;27;20703;-47
2023/02/02 03:31:47;;;;;;;4.70;1.93;;;16.10;62.20;;;;;;5098595;27;20219;-47
2023/02/02 03:34:19;;;;;;;4.43;1.90;;;16.10;62.20;;;;;;5100298;28;20201;-47
2023/02/02 03:36:50;;;;;;;2.77;1.50;;;16.10;62.20;;;;;;5109423;27;20240;-47
2023/02/02 03:39:20;;;;;;;5.30;1.57;;;16.10;62.20;;;;;;5108611;27;20243;-47
2023/02/02 03:41:50;;;;;;;4.50;1.63;;;16.10;62.30;;;;;;5077146;27;20196;-47
2023/02/02 03:44:23;;;;;;;3.23;1.57;;;16.10;62.30;;;;;;5121800;27;20429;-47
2023/02/02 03:46:54;;;;;;;6.90;2.50;;;16.10;62.10;;;;;;5113326;27;20176;-47
2023/02/02 03:49:21;;;;;;;5.57;2.10;;;16.10;62.20;;;;;;5101075;27;20260;-47
2023/02/02 03:51:52;;;;;;;3.97;1.80;;;16.10;62.20;;;;;;5101577;27;20514;-47
2023/02/02 03:54:23;;;;;;;4.27;1.87;;;16.00;62.20;;;;;;5119905;27;20252;-47
2023/02/02 03:56:58;;;;;;;2.90;1.60;;;16.10;62.30;;;;;;5112535;27;20208;-47
2023/02/02 03:59:29;;;;;;;5.93;2.03;;;16.00;62.20;;;;;;5113924;27;20196;-47
2023/02/02 04:02:00;;;;;;;4.83;1.57;;;16.00;62.30;;;;;;5119234;27;20215;-47
2023/02/02 04:04:29;;;;;;;4.83;1.90;;;16.00;62.30;;;;;;5109719;27;20252;-47
2023/02/02 04:07:00;;;;;;;4.13;1.60;;;16.00;62.30;;;;;;5110884;28;20199;-47
2023/02/02 04:09:30;;;;;;;4.57;1.77;;;16.10;62.20;;;;;;5075232;27;20631;-47
2023/02/02 04:12:00;;;;;;;6.50;2.03;;;16.10;62.30;;;;;;5110144;28;20189;-47
2023/02/02 04:14:29;;;;;;;3.07;1.60;;;16.10;62.40;;;;;;5092545;28;20526;-47
2023/02/02 04:17:01;;;;;;;2.93;1.53;;;16.10;62.40;;;;;;5104736;27;20211;-47
2023/02/02 04:19:35;;;;;;;2.87;1.70;;;16.10;62.40;;;;;;5108993;28;20211;-47
2023/02/02 04:22:07;;;;;;;4.47;2.10;;;16.00;62.30;;;;;;5089460;28;20211;-47
2023/02/02 04:24:37;;;;;;;4.47;1.73;;;16.00;62.30;;;;;;5106762;28;20208;-47
2023/02/02 04:27:07;;;;;;;3.60;1.73;;;16.10;62.40;;;;;;5099931;28;20208;-47
2023/02/02 04:29:39;;;;;;;6.30;1.70;;;16.00;62.20;;;;;;5109425;28;20633;-47
2023/02/02 04:32:09;;;;;;;5.00;1.80;;;16.00;62.20;;;;;;5116683;27;20204;-47
2023/02/02 04:34:40;;;;;;;3.33;1.50;;;16.00;62.40;;;;;;5107494;28;20590;-47
2023/02/02 04:37:09;;;;;;;4.43;1.77;;;16.00;62.30;;;;;;5091970;28;20251;-47
2023/02/02 04:39:47;;;;;;;5.73;1.97;;;16.00;62.40;;;;;;5082520;28;20220;-47
2023/02/02 04:42:15;;;;;;;4.10;1.80;;;16.00;62.40;;;;;;5094917;28;20621;-47
2023/02/02 04:44:45;;;;;;;4.67;2.23;;;16.00;62.30;;;;;;5095052;28;20208;-47
2023/02/02 04:47:17;;;;;;;3.80;1.47;;;16.00;62.40;;;;;;5094627;28;20196;-47
2023/02/02 04:49:47;;;;;;;3.67;1.30;;;16.00;62.40;;;;;;5093465;28;20197;-47
2023/02/02 04:52:17;;;;;;;7.13;1.47;;;16.00;62.20;;;;;;5085869;28;20217;-47
2023/02/02 04:54:49;;;;;;;2.20;1.20;;;16.00;62.40;;;;;;5099494;28;20210;-47
2023/02/02 04:57:18;;;;;;;5.33;1.83;;;16.00;62.50;;;;;;5091703;28;20555;-47
2023/02/02 04:59:50;;;;;;;5.03;1.80;;;16.00;62.40;;;;;;5089647;28;20606;-47
2023/02/02 05:02:20;;;;;;;4.00;1.50;;;16.00;62.50;;;;;;5103816;28;20209;-47
2023/02/02 05:04:52;;;;;;;3.87;1.87;;;16.00;62.50;;;;;;5092583;28;20986;-47
2023/02/02 05:07:23;;;;;;;4.23;1.90;;;16.00;62.40;;;;;;5095766;28;20606;-47
2023/02/02 05:09:55;;;;;;;4.40;1.70;;;16.00;62.50;;;;;;5089795;28;20192;-47
2023/02/02 05:12:29;;;;;;;3.03;1.73;;;16.00;62.30;;;;;;5101109;28;20201;-47
2023/02/02 05:15:04;;;;;;;5.50;2.17;;;16.00;62.40;;;;;;5084516;28;20235;-47
2023/02/02 05:17:35;;;;;;;5.23;1.47;;;16.00;62.50;;;;;;5088202;28;20205;-47
2023/02/02 05:20:05;;;;;;;5.33;1.67;;;16.00;62.50;;;;;;5092367;28;20211;-47
2023/02/02 05:22:40;;;;;;;3.40;1.63;;;16.00;62.60;;;;;;5091412;28;20189;-47
2023/02/02 05:25:11;;;;;;;3.80;1.70;;;16.00;62.50;;;;;;5090968;28;20592;-47
2023/02/02 05:27:43;;;;;;;3.27;1.50;;;15.90;62.50;;;;;;5089164;28;20266;-47
2023/02/02 05:30:14;;;;;;;4.57;1.23;;;16.00;62.50;;;;;;5097629;28;20192;-47
2023/02/02 05:32:44;;;;;;;6.13;1.87;;;16.00;62.50;;;;;;5082635;28;20189;-47
2023/02/02 05:35:14;;;;;;;3.60;1.70;;;16.00;62.50;;;;;;5092336;28;20254;-47
2023/02/02 05:37:46;;;;;;;4.90;2.00;;;16.00;62.50;;;;;;5112220;27;20238;-47
2023/02/02 05:40:15;;;;;;;4.13;1.50;;;16.00;62.40;;;;;;5109210;27;20209;-47
2023/02/02 05:42:48;;;;;;;3.37;1.70;;;16.00;62.50;;;;;;5114185;27;20223;-47
2023/02/02 05:45:31;;;;;;;4.00;1.30;;;16.00;62.40;;;;;;5093026;28;20649;-47
2023/02/02 05:48:03;;;;;;;4.40;1.50;;;16.00;62.50;;;;;;5109194;28;20189;-47
2023/02/02 05:50:35;;;;;;;3.00;1.40;;;16.00;62.30;;;;;;5106442;28;20521;-47
2023/02/02 05:53:03;;;;;;;2.93;1.17;;;16.00;62.30;;;;;;5106156;28;20200;-47
2023/02/02 05:55:35;;;;;;;3.83;1.47;;;16.00;62.30;;;;;;5117195;28;20200;-47
2023/02/02 05:58:07;;;;;;;3.17;1.33;;;16.00;62.30;;;;;;5109274;28;20306;-47
2023/02/02 06:00:38;;;;;;;4.63;1.63;;;15.90;62.10;;;;;;5112162;28;20225;-47
2023/02/02 06:03:08;;;;;;;5.53;1.70;;;16.00;62.10;;;;;;5119117;27;20277;-47
2023/02/02 06:05:38;;;;;;;3.80;1.63;;;15.90;62.00;;;;;;5116645;27;20545;-47
2023/02/02 06:08:10;;;;;;;8.87;2.43;;;15.90;62.10;;;;;;5112683;28;20783;-47
2023/02/02 06:10:40;;;;;;;6.77;2.23;;;15.90;62.00;;;;;;5110608;27;20192;-47
2023/02/02 06:13:12;;;;;;;9.90;1.93;;;15.90;61.80;;;;;;5103075;27;20191;-47
2023/02/02 06:15:42;;;;;;;7.30;2.27;;;15.90;61.70;;;;;;5103966;28;20573;-47
2023/02/02 06:18:18;;;;;;;5.37;2.03;;;15.90;61.60;;;;;;5121091;27;20196;-47
2023/02/02 06:20:48;;;;;;;4.77;2.10;;;15.90;61.60;;;;;;5090882;28;20188;-47
2023/02/02 06:23:18;;;;;;;6.93;1.73;;;15.90;61.60;;;;;;5115281;27;20438;-47
2023/02/02 06:25:48;;;;;;;6.43;2.00;;;15.90;61.50;;;;;;5112666;27;20212;-47
2023/02/02 06:28:17;;;;;;;5.03;1.87;;;15.90;61.60;;;;;;5101380;27;20192;-47
2023/02/02 06:30:49;;;;;;;5.90;1.97;;;15.90;61.60;;;;;;5112555;27;20220;-47
2023/02/02 06:33:20;;;;;;;5.33;1.40;;;15.90;61.50;;;;;;5102236;28;20548;-47
2023/02/02 06:35:52;;;;;;;103.67;20.13;;;15.90;61.50;;;;;;5098011;27;20745;-47
2023/02/02 06:38:20;;;;;;;338.07;69.30;;;15.90;62.20;;;;;;5111236;27;20188;-47
2023/02/02 06:40:52;;;;;;;443.60;94.53;;;15.90;62.60;;;;;;5108220;27;20307;-47
2023/02/02 06:43:23;;;;;;;385.20;83.53;;;16.00;62.80;;;;;;5114470;27;20220;-47
2023/02/02 06:45:53;;;;;;;354.60;77.33;;;15.90;62.80;;;;;;5098745;27;20216;-47
2023/02/02 06:48:26;;;;;;;338.63;73.07;;;15.90;62.50;;;;;;5093988;28;20667;-47
2023/02/02 06:51:14;;;;;;;343.83;72.63;;;15.90;62.60;;;;;;5103163;27;20217;-46
2023/02/02 06:53:47;;;;;;;300.77;65.77;;;15.90;62.20;;;;;;5120674;27;20259;-47
2023/02/02 06:56:16;;;;;;;287.27;62.73;;;15.90;62.10;;;;;;5096884;27;20227;-47
2023/02/02 06:58:49;;;;;;;240.13;57.40;;;15.90;62.00;;;;;;5095345;27;20200;-47
2023/02/02 07:01:18;;;;;;;227.67;52.83;;;15.90;62.00;;;;;;5117533;27;20196;-46
2023/02/02 07:03:49;;;;;;;212.27;47.73;;;15.90;61.90;;;;;;5107720;27;20216;-46
2023/02/02 07:06:27;;;;;;;197.97;44.43;;;15.90;61.70;;;;;;5100670;27;20216;-46
2023/02/02 07:09:04;;;;;;;172.40;43.23;;;15.90;61.60;;;;;;5111157;28;20200;-46
2023/02/02 07:11:35;;;;;;;172.03;41.53;;;15.90;61.60;;;;;;5103902;27;20232;-44
2023/02/02 07:14:13;;;;;;;139.93;35.47;;;15.90;61.70;;;;;;5111874;27;20196;-44
2023/02/02 07:16:45;;;;;;;141.20;35.30;;;15.90;61.60;;;;;;5110181;27;20208;-44
2023/02/02 07:19:15;;;;;;;139.00;34.03;;;15.90;61.60;;;;;;5120079;27;20216;-44
2023/02/02 07:21:45;;;;;;;130.37;32.43;;;15.90;61.50;;;;;;5122282;27;20188;-44
2023/02/02 07:24:13;;;;;;;124.50;33.80;;;15.90;61.50;;;;;;5113660;27;20223;-44
2023/02/02 07:26:43;;;;;;;109.37;29.47;;;15.90;61.50;;;;;;5117436;27;20250;-47
2023/02/02 07:29:13;;;;;;;106.97;27.77;;;15.90;61.50;;;;;;5105343;27;20240;-46
2023/02/02 07:31:44;;;;;;;98.23;26.00;;;15.90;61.70;;;;;;5100583;28;20239;-44
2023/02/02 07:34:16;;;;;;;88.10;24.83;;;15.90;61.50;;;;;;5123645;27;20196;-44
2023/02/02 07:36:47;;;;;;;85.07;23.17;;;15.90;61.60;;;;;;5106829;27;20254;-46
2023/02/02 07:39:23;;;;;;;72.53;22.23;;;15.90;61.60;;;;;;5083193;28;20676;-46
2023/02/02 07:41:55;;;;;;;77.83;22.53;;;15.90;62.20;;;;;;5115083;27;20196;-44
2023/02/02 07:44:26;;;;;;;69.77;19.03;;;15.90;61.60;;;;;;5115635;27;20188;-44
2023/02/02 07:46:55;;;;;;;75.73;20.77;;;15.80;61.50;;;;;;5112231;27;20278;-44
2023/02/02 07:49:24;;;;;;;71.37;20.10;;;15.80;61.50;;;;;;5111789;27;20338;-44
2023/02/02 07:51:54;;;;;;;65.97;18.13;;;15.80;61.50;;;;;;5108162;27;20646;-44
2023/02/02 07:54:26;;;;;;;55.97;16.50;;;15.80;61.50;;;;;;5129420;27;20250;-44
2023/02/02 07:56:56;;;;;;;53.03;14.90;;;15.80;61.40;;;;;;5114302;27;20203;-46
2023/02/02 07:59:29;;;;;;;45.80;14.13;;;15.80;61.30;;;;;;5111813;27;20341;-46
2023/02/02 08:02:03;;;;;;;51.83;14.57;;;15.80;61.30;;;;;;5111568;27;20200;-47
2023/02/02 08:04:33;;;;;;;39.07;13.20;;;15.80;61.30;;;;;;5086770;28;20215;-46
2023/02/02 08:07:04;;;;;;;42.37;11.80;;;15.80;61.20;;;;;;5111516;27;20220;-44
2023/02/02 08:09:34;;;;;;;34.30;12.00;;;15.80;61.20;;;;;;5110378;27;20554;-44
2023/02/02 08:12:06;;;;;;;41.50;11.30;;;15.80;61.10;;;;;;5122746;27;20217;-46
2023/02/02 08:14:39;;;;;;;32.13;9.53;;;15.80;61.10;;;;;;5110132;27;20193;-46
2023/02/02 08:17:08;;;;;;;33.80;11.00;;;15.80;61.00;;;;;;5117573;27;20211;-44
2023/02/02 08:19:39;;;;;;;36.70;10.40;;;15.80;61.00;;;;;;5104163;27;20203;-44
2023/02/02 08:22:10;;;;;;;33.97;10.67;;;15.80;61.00;;;;;;5117461;27;20366;-46
2023/02/02 08:24:42;;;;;;;28.83;9.93;;;15.80;61.00;;;;;;5114359;27;20241;-46
2023/02/02 08:27:18;;;;;;;29.30;8.60;;;15.80;61.00;;;;;;5113872;27;20243;-43
2023/02/02 08:29:48;;;;;;;28.10;8.33;;;15.80;61.10;;;;;;5112108;27;20196;-43
2023/02/02 08:32:17;;;;;;;27.30;8.30;;;15.80;61.00;;;;;;5111525;28;20196;-45
2023/02/02 08:34:48;;;;;;;26.10;8.07;;;15.80;61.00;;;;;;5114892;27;20193;-47
2023/02/02 08:37:16;;;;;;;24.33;7.27;;;15.80;61.10;;;;;;5095634;28;20760;-46
2023/02/02 08:39:50;;;;;;;26.83;7.97;;;15.80;61.00;;;;;;5094652;28;20254;-47
2023/02/02 08:42:20;;;;;;;25.80;7.27;;;15.80;61.00;;;;;;5119178;27;20625;-48
2023/02/02 08:44:50;;;;;;;21.20;7.27;;;15.80;61.00;;;;;;5109842;27;20824;-48
2023/02/02 08:47:43;;;;;;;17.50;6.10;;;15.80;61.00;;;;;;5106586;28;20205;-44
2023/02/02 08:50:13;;;;;;;19.60;6.57;;;15.80;61.00;;;;;;5109342;27;20602;-45
2023/02/02 08:52:44;;;;;;;17.20;5.67;;;15.80;61.00;;;;;;5109953;27;20208;-46
2023/02/02 08:55:17;;;;;;;19.77;6.63;;;15.80;60.90;;;;;;5115601;27;20272;-46
2023/02/02 08:57:48;;;;;;;15.53;5.27;;;15.80;60.90;;;;;;5097547;27;20215;-45
2023/02/02 09:00:19;;;;;;;17.23;5.37;;;15.80;60.70;;;;;;5109290;28;20540;-45
2023/02/02 09:02:52;;;;;;;12.63;4.53;;;15.80;60.70;;;;;;5103409;27;20777;-46
2023/02/02 09:05:23;;;;;;;16.53;5.13;;;15.80;60.70;;;;;;5120273;27;20379;-48
2023/02/02 09:07:53;;;;;;;12.23;4.67;;;15.70;60.70;;;;;;5110393;27;20227;-48
2023/02/02 09:10:23;;;;;;;13.03;4.93;;;15.80;60.80;;;;;;5077282;27;20196;-45
2023/02/02 09:12:53;;;;;;;15.27;4.90;;;15.80;60.70;;;;;;5103818;27;20203;-45
2023/02/02 09:15:24;;;;;;;14.33;4.60;;;15.80;60.70;;;;;;5106804;28;20231;-46
2023/02/02 09:17:55;;;;;;;11.53;3.90;;;15.80;60.60;;;;;;5110180;27;20583;-45
2023/02/02 09:20:26;;;;;;;11.50;4.37;;;15.80;60.60;;;;;;5114922;27;20203;-47
2023/02/02 09:22:58;;;;;;;11.33;4.20;;;15.80;60.60;;;;;;5092009;27;20208;-47
2023/02/02 09:25:28;;;;;;;14.93;4.17;;;15.80;60.50;;;;;;5112570;27;20238;-45
2023/02/02 09:28:00;;;;;;;9.77;3.43;;;15.80;60.50;;;;;;5110717;27;20346;-45
2023/02/02 09:30:30;;;;;;;13.50;4.07;;;15.80;60.50;;;;;;5108828;28;20757;-45
2023/02/02 09:33:02;;;;;;;10.90;3.63;;;15.80;60.50;;;;;;5101356;27;20188;-45
2023/02/02 09:35:35;;;;;;;13.50;4.07;;;15.70;60.50;;;;;;5107937;27;20192;-47
2023/02/02 09:38:04;;;;;;;12.07;3.57;;;15.80;60.50;;;;;;5116414;27;20672;-47
2023/02/02 09:40:39;;;;;;;10.87;3.50;;;15.80;60.50;;;;;;5098290;28;20208;-47
2023/02/02 09:43:45;;;;;;;10.00;3.40;;;15.80;60.50;;;;;;5108351;28;20516;-48
2023/02/02 09:46:34;;;;;;;8.20;3.07;;;15.70;60.40;;;;;;5105980;28;20246;-47
2023/02/02 09:49:10;;;;;;;9.97;3.60;;;15.80;60.40;;;;;;5096641;28;20683;-47
2023/02/02 09:51:54;;;;;;;8.97;2.73;;;15.70;60.30;;;;;;5071976;28;20661;-47
2023/02/02 09:54:45;;;;;;;10.90;3.60;;;15.80;60.30;;;;;;5091764;28;20191;-47
2023/02/02 09:57:30;;;;;;;7.50;2.40;;;15.70;60.20;;;;;;5107704;28;20206;-44
2023/02/02 09:59:57;;;;;;;7.83;2.93;;;15.80;60.30;;;;;;5089998;28;20196;-44
2023/02/02 10:02:41;;;;;;;7.90;2.30;;;15.70;60.20;;;;;;5079943;28;20200;-44
2023/02/02 10:05:20;;;;;;;8.80;2.83;;;15.80;60.30;;;;;;5100335;28;20754;-47
2023/02/02 10:07:57;;;;;;;9.17;3.00;;;15.70;60.30;;;;;;5090268;28;20180;-47
2023/02/02 10:10:38;;;;;;;7.53;2.37;;;15.70;60.30;;;;;;5112164;28;20184;-44
2023/02/02 10:13:20;;;;;;;7.50;2.50;;;15.80;60.40;;;;;;5111183;28;20188;-44
2023/02/02 10:16:18;;;;;;;7.93;2.60;;;15.80;60.40;;;;;;5108095;28;20211;-46
2023/02/02 10:18:54;;;;;;;7.07;2.70;;;15.80;60.50;;;;;;5107071;28;20238;-47
2023/02/02 10:22:13;;;;;;;5.70;2.50;;;15.80;60.50;;;;;;5103283;28;20629;-45
2023/02/02 10:24:43;;;;;;;6.63;2.70;;;15.80;60.50;;;;;;5103001;28;20209;-44
2023/02/02 10:27:22;;;;;;;6.87;2.80;;;15.80;60.60;;;;;;5094340;28;20736;-45
2023/02/02 10:30:07;;;;;;;7.90;2.43;;;15.80;60.50;;;;;;5092335;28;20211;-44
2023/02/02 10:33:08;;;;;;;6.53;2.67;;;15.70;60.30;;;;;;5105220;28;20631;-45
2023/02/02 10:35:52;;;;;;;7.30;2.63;;;15.80;60.50;;;;;;5103913;28;20231;-47
2023/02/02 10:39:15;;;;;;;6.10;2.50;;;15.80;60.50;;;;;;5088117;28;20192;-47
2023/02/02 10:42:09;;;;;;;6.13;1.97;;;15.80;60.50;;;;;;5008944;28;20215;-45
2023/02/02 10:44:53;;;;;;;7.47;2.63;;;15.70;60.40;;;;;;5087378;28;20219;-44
2023/02/02 10:47:30;;;;;;;4.47;2.30;;;15.70;60.40;;;;;;5087100;28;20238;-45
2023/02/02 10:50:09;;;;;;;7.43;2.40;;;15.80;60.40;;;;;;5101282;28;20523;-45
2023/02/02 10:52:47;;;;;;;4.90;2.10;;;15.80;60.50;;;;;;5081430;28;20809;-45
2023/02/02 10:55:37;;;;;;;5.93;2.30;;;15.80;60.50;;;;;;5075957;28;20204;-45
2023/02/02 10:58:27;;;;;;;7.13;2.20;;;15.80;60.40;;;;;;5092544;28;20204;-45
2023/02/02 11:01:06;;;;;;;6.17;2.27;;;15.70;60.40;;;;;;5094335;28;20262;-47
2023/02/02 11:03:40;;;;;;;7.23;2.30;;;15.70;60.40;;;;;;5079576;28;20212;-47
2023/02/02 11:09:03;;;;;;;6.27;2.87;;;15.80;60.50;;;;;;5072395;28;20238;-47
2023/02/02 11:11:49;;;;;;;4.40;2.10;;;15.80;60.40;;;;;;5072106;28;20193;-45
2023/02/02 11:14:35;;;;;;;5.10;2.50;;;15.80;60.50;;;;;;5069926;28;20197;-45
2023/02/02 11:17:28;;;;;;;5.63;2.00;;;15.80;60.50;;;;;;5088896;28;20577;-45
2023/02/02 11:20:30;;;;;;;4.63;2.17;;;15.80;60.60;;;;;;5088008;28;20634;-45
2023/02/02 11:23:03;;;;;;;6.53;2.43;;;15.80;60.70;;;;;;5075746;28;20258;-45
2023/02/02 11:25:38;;;;;;;4.70;2.10;;;15.80;60.70;;;;;;5089514;28;20197;-45
2023/02/02 11:28:23;;;;;;;7.43;2.47;;;15.80;60.60;;;;;;5071049;28;20220;-45
2023/02/02 11:30:56;;;;;;;5.47;2.53;;;15.80;60.60;;;;;;5063713;28;20221;-45
2023/02/02 11:33:37;;;;;;;5.13;2.47;;;15.80;60.50;;;;;;5087032;28;20881;-45
2023/02/02 11:36:25;;;;;;;7.93;2.50;;;15.90;60.60;;;;;;5072644;28;20208;-47
2023/02/02 11:39:23;;;;;;;7.80;2.73;;;15.90;60.50;;;;;;5104065;27;20202;-47
2023/02/02 11:42:33;;;;;;;7.07;2.70;;;15.80;60.40;;;;;;5106001;27;20196;-45
2023/02/02 11:45:20;;;;;;;6.03;2.80;;;15.90;60.50;;;;;;5090076;28;20219;-45
2023/02/02 11:47:51;;;;;;;7.23;2.43;;;15.90;60.50;;;;;;5107581;27;20212;-47
2023/02/02 11:50:26;;;;;;;6.53;2.63;;;15.80;60.40;;;;;;5074696;28;20192;-47
2023/02/02 11:52:54;;;;;;;5.87;2.27;;;15.90;60.50;;;;;;5084903;27;20208;-47
2023/02/02 11:55:31;;;;;;;6.53;2.50;;;15.80;60.40;;;;;;5091518;27;20195;-47
2023/02/02 11:58:26;;;;;;;6.00;2.57;;;15.90;60.50;;;;;;5090851;28;20200;-47
2023/02/02 12:01:02;;;;;;;5.87;2.13;;;15.80;60.50;;;;;;5106805;27;20192;-45
2023/02/02 12:03:39;;;;;;;5.97;2.83;;;15.80;60.40;;;;;;5086529;28;20668;-45
2023/02/02 12:06:34;;;;;;;4.57;2.07;;;15.90;60.50;;;;;;5109026;27;20207;-44
2023/02/02 12:09:17;;;;;;;5.67;2.03;;;15.90;60.50;;;;;;5093652;28;20656;-44
2023/02/02 12:12:17;;;;;;;5.73;2.63;;;15.80;60.50;;;;;;5088556;28;20713;-45
2023/02/02 12:15:18;;;;;;;6.20;2.40;;;15.90;60.50;;;;;;5084867;28;20204;-45
2023/02/02 12:18:14;;;;;;;8.07;2.80;;;15.90;60.50;;;;;;5107165;27;20298;-47
2023/02/02 12:21:06;;;;;;;7.23;2.00;;;15.80;60.50;;;;;;5058004;27;20254;-47
2023/02/02 12:24:28;;;;;;;5.17;2.20;;;15.80;60.50;;;;;;5088532;27;20200;-47
2023/02/02 12:27:40;;;;;;;6.80;2.30;;;15.90;60.50;;;;;;5100042;27;20232;-47
2023/02/02 12:30:19;;;;;;;5.47;2.27;;;15.80;60.50;;;;;;5085647;28;20662;-47
2023/02/02 12:33:43;;;;;;;7.70;2.90;;;15.80;60.50;;;;;;5088482;27;20211;-46
2023/02/02 12:36:39;;;;;;;6.00;2.07;;;15.80;60.40;;;;;;5051188;28;20230;-47
2023/02/02 12:39:46;;;;;;;5.43;2.17;;;15.80;60.50;;;;;;5105661;27;20645;-46
2023/02/02 12:42:35;;;;;;;5.63;2.07;;;15.80;60.50;;;;;;5088038;27;20252;-46
2023/02/02 12:45:33;;;;;;;5.87;2.33;;;15.80;60.50;;;;;;5104313;27;20249;-46
2023/02/02 12:48:50;;;;;;;5.53;2.27;;;15.80;60.40;;;;;;5048989;28;20244;-45
2023/02/02 12:51:44;;;;;;;6.13;2.10;;;15.80;60.40;;;;;;5097106;27;20292;-47
2023/02/02 12:55:00;;;;;;;4.87;1.80;;;15.80;60.40;;;;;;5106780;28;20848;-47
2023/02/02 12:58:24;;;;;;;3.60;1.50;;;15.80;60.40;;;;;;5085495;28;20196;-47
2023/02/02 13:01:32;;;;;;;4.20;2.50;;;15.80;60.40;;;;;;4983424;28;20698;-45
2023/02/02 13:04:17;;;;;;;4.80;2.10;;;15.80;60.50;;;;;;5097158;27;20635;-45
2023/02/02 13:07:16;;;;;;;6.23;2.10;;;15.80;60.50;;;;;;5095431;27;20209;-47
2023/02/02 13:10:19;;;;;;;5.47;1.83;;;15.80;60.50;;;;;;5102984;27;20185;-47
2023/02/02 13:13:01;;;;;;;4.73;1.90;;;15.80;60.50;;;;;;5104382;27;20204;-44
2023/02/02 13:15:47;;;;;;;3.43;1.67;;;15.80;60.40;;;;;;5104862;27;20982;-46
2023/02/02 13:18:46;;;;;;;4.67;2.00;;;15.80;60.40;;;;;;5089095;28;20215;-46
2023/02/02 13:21:21;;;;;;;3.43;1.50;;;15.80;60.30;;;;;;5116160;27;20194;-44
2023/02/02 13:23:55;;;;;;;4.33;1.63;;;15.80;60.50;;;;;;5100047;28;20890;-44
2023/02/02 13:26:34;;;;;;;4.60;1.60;;;15.80;60.40;;;;;;5089164;28;20212;-47
2023/02/02 13:29:10;;;;;;;4.90;1.70;;;15.90;60.50;;;;;;5116560;27;20278;-47
2023/02/02 13:31:51;;;;;;;6.73;2.33;;;15.80;60.40;;;;;;5102423;27;20245;-44
2023/02/02 13:35:15;;;;;;;4.57;1.97;;;15.80;60.40;;;;;;5120971;27;20237;-44
2023/02/02 13:38:25;;;;;;;5.03;2.23;;;15.80;60.30;;;;;;5100763;28;20260;-44
2023/02/02 13:41:04;;;;;;;4.90;1.90;;;15.80;61.00;;;;;;5096212;27;20227;-47
2023/02/02 13:44:06;;;;;;;6.00;1.53;;;15.80;60.80;;;;;;5107989;28;20677;-47
2023/02/02 13:47:06;;;;;;;6.63;2.40;;;15.80;61.00;;;;;;5087510;28;20230;-44
2023/02/02 13:50:11;;;;;;;6.50;1.97;;;15.90;60.70;;;;;;5101783;28;20267;-45